createdAt,value
2022-08-24T00:02:31.015Z,1.95
2022-08-24T00:07:34.388Z,2.00
2022-08-24T00:12:38.581Z,1.88
2022-08-24T00:17:41.763Z,1.90
2022-08-24T00:22:44.713Z,2.17
2022-08-24T00:27:49.247Z,1.90
2022-08-24T00:32:53.766Z,2.38
2022-08-24T00:37:57.366Z,2.40
2022-08-24T00:43:04.567Z,2.22
2022-08-24T00:48:12.874Z,1.70
2022-08-24T00:53:24.340Z,1.90
2022-08-24T00:58:32.617Z,2.28
2022-08-24T01:03:37.347Z,2.00
2022-08-24T01:08:40.891Z,2.40
2022-08-24T01:13:47.857Z,2.10
2022-08-24T01:18:50.769Z,2.47
2022-08-24T01:23:58.434Z,2.42
2022-08-24T01:29:05.229Z,2.75
2022-08-24T01:34:09.254Z,2.40
2022-08-24T01:39:16.349Z,2.20
2022-08-24T01:44:20.452Z,2.30
2022-08-24T01:49:25.947Z,2.00
2022-08-24T01:54:31.361Z,2.00
2022-08-24T01:59:38.646Z,2.15
2022-08-24T02:04:44.224Z,2.47
2022-08-24T02:09:49.347Z,2.13
2022-08-24T02:14:53.395Z,2.45
2022-08-24T02:19:56.324Z,2.33
2022-08-24T02:25:00.602Z,2.55
2022-08-24T02:30:06.362Z,2.13
2022-08-24T02:35:11.073Z,2.50
2022-08-24T02:40:15.651Z,2.42
2022-08-24T02:45:18.982Z,2.53
2022-08-24T02:50:23.144Z,2.90
2022-08-24T02:55:27.692Z,2.55
2022-08-24T03:00:30.613Z,2.40
2022-08-24T03:05:34.167Z,2.50
2022-08-24T03:10:38.663Z,2.65
2022-08-24T03:15:41.926Z,2.75
2022-08-24T03:20:44.907Z,2.50
2022-08-24T03:25:49.333Z,2.85
2022-08-24T03:30:53.507Z,2.78
2022-08-24T03:35:57.805Z,2.80
2022-08-24T03:41:02.245Z,2.58
2022-08-24T03:46:07.433Z,2.80
2022-08-24T03:51:13.334Z,2.67
2022-08-24T03:56:18.454Z,2.83
2022-08-24T04:01:22.729Z,2.85
2022-08-24T04:06:26.454Z,3.15
2022-08-24T04:11:32.202Z,3.15
2022-08-24T04:16:36.406Z,2.97
2022-08-24T04:21:50.132Z,2.92
2022-08-24T04:26:56.392Z,3.10
2022-08-24T04:32:00.950Z,2.95
2022-08-24T04:37:08.534Z,3.60
2022-08-24T04:42:15.359Z,3.30
2022-08-24T04:47:18.781Z,3.17
2022-08-24T04:52:22.682Z,3.53
2022-08-24T04:57:26.907Z,3.40
2022-08-24T05:02:31.046Z,3.63
2022-08-24T05:07:36.478Z,3.50
2022-08-24T05:12:40.998Z,3.28
2022-08-24T05:17:51.398Z,3.63
2022-08-24T05:22:56.334Z,3.35
2022-08-24T05:28:01.723Z,4.22
2022-08-24T05:33:05.013Z,3.65
2022-08-24T05:38:09.531Z,3.78
2022-08-24T05:43:15.664Z,3.40
2022-08-24T05:48:19.274Z,3.88
2022-08-24T05:53:57.143Z,3.88
2022-08-24T05:59:05.576Z,4.47
2022-08-24T06:04:08.532Z,3.92
2022-08-24T06:09:12.600Z,3.85
2022-08-24T06:14:21.882Z,3.60
2022-08-24T06:19:31.457Z,3.40
2022-08-24T06:24:54.945Z,3.60
2022-08-24T06:30:01.312Z,3.42
2022-08-24T06:35:33.199Z,3.55
2022-08-24T06:40:36.175Z,3.05
2022-08-24T06:45:41.616Z,3.50
2022-08-24T06:50:49.657Z,3.22
2022-08-24T06:55:54.744Z,2.97
2022-08-24T07:01:08.267Z,3.30
2022-08-24T07:06:12.567Z,3.35
2022-08-24T07:11:20.112Z,3.25
2022-08-24T07:16:24.957Z,3.10
2022-08-24T07:21:32.989Z,2.85
2022-08-24T07:26:36.057Z,2.67
2022-08-24T07:31:41.376Z,3.60
2022-08-24T07:36:50.729Z,2.67
2022-08-24T07:42:12.326Z,2.60
2022-08-24T07:47:37.711Z,2.47
2022-08-24T07:52:48.454Z,2.40
2022-08-24T07:57:51.498Z,2.88
2022-08-24T08:02:56.810Z,2.88
2022-08-24T08:08:00.186Z,3.00
2022-08-24T08:13:04.291Z,3.03
2022-08-24T08:18:09.444Z,3.60
2022-08-24T08:23:31.846Z,3.93
2022-08-24T08:28:42.700Z,3.60
2022-08-24T08:33:47.401Z,3.88
2022-08-24T08:38:51.437Z,4.25
2022-08-24T08:44:01.178Z,3.70
2022-08-24T08:49:16.827Z,3.65
2022-08-24T08:54:43.748Z,3.90
2022-08-24T09:00:15.579Z,3.72
2022-08-24T09:06:04.853Z,4.00
2022-08-24T09:11:20.559Z,3.92
2022-08-24T09:16:39.715Z,3.58
2022-08-24T09:21:57.495Z,3.78
2022-08-24T09:32:28.544Z,4.32
2022-08-24T09:37:50.801Z,3.95
2022-08-24T09:43:32.748Z,3.17
2022-08-24T09:49:13.626Z,3.75
2022-08-24T09:54:36.800Z,3.20
2022-08-24T10:00:05.939Z,3.75
2022-08-24T10:05:29.193Z,3.13
2022-08-24T10:10:46.872Z,3.00
2022-08-24T10:16:09.113Z,3.28
2022-08-24T10:21:25.508Z,3.00
2022-08-24T10:26:41.144Z,3.25
2022-08-24T10:32:03.875Z,2.95
2022-08-24T10:37:42.422Z,2.75
2022-08-24T10:43:37.773Z,2.75
2022-08-24T10:49:02.922Z,2.30
2022-08-24T10:54:12.293Z,2.20
2022-08-24T10:59:23.475Z,2.50
2022-08-24T11:04:30.538Z,2.60
2022-08-24T11:09:48.314Z,2.43
2022-08-24T11:14:54.047Z,2.40
2022-08-24T11:19:59.371Z,2.80
2022-08-24T11:25:11.602Z,2.40
2022-08-24T11:30:26.013Z,2.60
2022-08-24T11:35:37.301Z,2.50
2022-08-24T11:40:45.453Z,2.60
2022-08-24T11:46:01.748Z,2.40
2022-08-24T11:51:15.952Z,2.05
2022-08-24T11:56:26.394Z,2.72
2022-08-24T12:01:36.083Z,2.50
2022-08-24T12:06:59.607Z,2.88
2022-08-24T12:12:12.267Z,2.50
2022-08-24T12:17:20.334Z,2.28
2022-08-24T12:22:24.897Z,2.20
2022-08-24T12:27:33.466Z,2.03
2022-08-24T12:32:41.580Z,2.13
2022-08-24T12:37:49.206Z,2.33
2022-08-24T12:42:56.409Z,2.63
2022-08-24T12:48:06.433Z,1.98
2022-08-24T12:53:27.000Z,2.20
2022-08-24T12:58:55.704Z,2.75
2022-08-24T13:04:13.455Z,2.88
2022-08-24T13:09:29.868Z,2.38
2022-08-24T13:14:35.528Z,2.00
2022-08-24T13:19:41.980Z,2.30
2022-08-24T13:24:46.199Z,2.43
2022-08-24T13:30:09.130Z,1.92
2022-08-24T13:35:35.709Z,2.50
2022-08-24T13:40:48.843Z,2.00
2022-08-24T13:45:58.400Z,2.30
2022-08-24T13:51:26.494Z,2.00
2022-08-24T13:56:39.099Z,2.75
2022-08-24T14:02:06.840Z,2.35
2022-08-24T14:07:17.178Z,2.28
2022-08-24T14:12:38.958Z,2.22
2022-08-24T14:17:55.128Z,2.33
2022-08-24T14:23:04.367Z,2.47
2022-08-24T14:28:36.042Z,2.28
2022-08-24T14:33:52.021Z,2.70
2022-08-24T14:39:04.824Z,2.28
2022-08-24T14:44:26.187Z,2.35
2022-08-24T14:49:36.814Z,2.10
2022-08-24T14:54:47.761Z,1.83
2022-08-24T15:00:06.375Z,2.28
2022-08-24T15:05:22.071Z,2.17
2022-08-24T15:10:28.873Z,2.40
2022-08-24T15:15:36.261Z,2.33
2022-08-24T15:20:54.593Z,2.15
2022-08-24T15:26:04.753Z,1.90
2022-08-24T15:31:11.796Z,2.08
2022-08-24T15:36:18.171Z,1.83
2022-08-24T15:41:24.593Z,2.80
2022-08-24T15:46:33.863Z,2.17
2022-08-24T15:51:47.820Z,1.88
2022-08-24T15:56:53.601Z,1.98
2022-08-24T16:02:28.922Z,1.80
2022-08-24T16:07:55.022Z,2.20
2022-08-24T16:13:08.015Z,2.10
2022-08-24T16:18:12.569Z,2.58
2022-08-24T16:23:26.812Z,1.88
2022-08-24T16:28:37.373Z,2.40
2022-08-24T16:33:44.588Z,2.10
2022-08-24T16:38:51.086Z,2.27
2022-08-24T16:43:54.369Z,1.70
2022-08-24T16:48:57.483Z,2.10
2022-08-24T16:54:01.690Z,1.70
2022-08-24T16:59:06.915Z,1.80
2022-08-24T17:04:09.902Z,2.00
2022-08-24T17:09:14.232Z,1.92
2022-08-24T17:14:18.031Z,2.20
2022-08-24T17:19:21.444Z,2.08
2022-08-24T17:24:26.811Z,2.20
2022-08-24T17:29:30.195Z,2.75
2022-08-24T17:34:33.280Z,2.50
2022-08-24T17:39:37.640Z,1.98
2022-08-24T17:44:40.574Z,3.55
2022-08-24T17:49:43.526Z,2.33
2022-08-24T17:54:47.748Z,2.65
2022-08-24T17:59:51.332Z,2.70
2022-08-24T18:04:54.185Z,3.20
2022-08-24T18:10:00.654Z,2.45
2022-08-24T18:15:03.606Z,2.70
2022-08-24T18:20:10.121Z,3.17
2022-08-24T18:25:16.158Z,3.45
2022-08-24T18:30:22.601Z,3.10
2022-08-24T18:35:28.482Z,3.40
2022-08-24T18:40:34.352Z,3.28
2022-08-24T18:45:37.313Z,3.53
2022-08-24T18:50:42.277Z,3.70
2022-08-24T18:55:48.007Z,3.63
2022-08-24T19:00:51.693Z,4.20
2022-08-24T19:05:55.628Z,5.57
2022-08-24T19:11:00.311Z,4.80
2022-08-24T19:16:03.326Z,4.00
2022-08-24T19:21:06.621Z,3.03
2022-08-24T19:26:10.942Z,4.07
2022-08-24T19:31:14.668Z,3.40
2022-08-24T19:36:18.381Z,3.97
2022-08-24T19:41:23.140Z,3.90
2022-08-24T19:46:40.167Z,4.05
2022-08-24T19:51:43.684Z,3.08
2022-08-24T19:56:48.171Z,3.67
2022-08-24T20:01:51.197Z,3.55
2022-08-24T20:06:54.316Z,3.42
2022-08-24T20:11:58.572Z,3.42
2022-08-24T20:17:01.550Z,4.60
2022-08-24T20:22:13.213Z,4.35
2022-08-24T20:27:22.076Z,3.95
2022-08-24T20:32:25.021Z,3.60
2022-08-24T20:37:29.827Z,3.63
2022-08-24T20:42:34.102Z,3.75
2022-08-24T20:47:48.742Z,3.03
2022-08-24T20:52:52.780Z,4.18
2022-08-24T20:58:00.655Z,3.85
2022-08-24T21:03:03.754Z,4.03
2022-08-24T21:08:06.851Z,3.88
2022-08-24T21:13:11.479Z,3.45
2022-08-24T21:18:14.766Z,3.80
2022-08-24T21:23:17.591Z,3.80
2022-08-24T21:28:22.549Z,3.40
2022-08-24T21:33:43.103Z,3.28
2022-08-24T21:38:45.911Z,3.55
2022-08-24T21:43:50.693Z,3.30
2022-08-24T21:48:53.627Z,3.40
2022-08-24T21:53:59.612Z,3.67
2022-08-24T21:59:04.420Z,3.22
2022-08-24T22:04:08.776Z,3.20
2022-08-24T22:09:11.668Z,3.72
2022-08-24T22:14:16.792Z,3.17
2022-08-24T22:19:20.027Z,3.33
2022-08-24T22:24:23.139Z,3.90
2022-08-24T22:29:27.381Z,3.58
2022-08-24T22:34:30.956Z,3.88
2022-08-24T22:39:34.076Z,3.88
2022-08-24T22:44:38.328Z,3.78
2022-08-24T22:49:44.341Z,3.97
2022-08-24T22:54:47.202Z,3.58
2022-08-24T22:59:52.079Z,4.40
2022-08-24T23:04:55.051Z,3.83
2022-08-24T23:09:58.013Z,3.80
2022-08-24T23:15:02.316Z,4.35
2022-08-24T23:20:06.421Z,4.18
2022-08-24T23:25:14.739Z,4.30
2022-08-24T23:30:19.085Z,4.20
2022-08-24T23:35:21.895Z,4.20
2022-08-24T23:40:25.081Z,4.20
2022-08-24T23:45:30.555Z,4.32
2022-08-24T23:50:34.361Z,4.53
2022-08-24T23:55:37.186Z,4.72
